Time;durP1;ratioP1;P1;durP2;ratioP2;P2;SDS_P1;SDS_P2;PMS_P1;PMS_P2;Temp;Humidity;BMP_temperature;BMP_pressure;BME280_temperature;BME280_humidity;BME280_pressure;Samples;Min_cycle;Max_cycle;Signal;HPM_P1;HPM_P2
2021/12/28 00:00:26;;;;;;;2.60;1.53;;;;;;;18.10;51.05;98805.94;5071402;28;20193;-57
2021/12/28 00:02:51;;;;;;;3.70;1.60;;;;;;;18.12;51.00;98806.31;5071093;28;20286;-58
2021/12/28 00:05:17;;;;;;;2.33;1.30;;;;;;;18.12;51.39;98797.75;5069420;28;21063;-57
2021/12/28 00:07:42;;;;;;;4.20;1.63;;;;;;;18.14;51.07;98781.03;5078092;28;20191;-57
2021/12/28 00:10:10;;;;;;;3.03;1.30;;;;;;;18.11;51.28;98784.69;5082454;28;20320;-57
2021/12/28 00:12:38;;;;;;;2.47;1.20;;;;;;;18.10;51.31;98771.66;5065178;28;20245;-57
2021/12/28 00:15:30;;;;;;;2.73;1.40;;;;;;;18.15;50.97;98768.38;5070610;28;20520;-57
2021/12/28 00:17:59;;;;;;;2.67;1.40;;;;;;;18.20;51.03;98773.66;5069404;28;20944;-57
2021/12/28 00:20:31;;;;;;;2.30;1.30;;;;;;;18.15;51.21;98774.09;5070831;28;20764;-57
2021/12/28 00:22:56;;;;;;;3.80;1.30;;;;;;;18.13;51.35;98776.56;5071014;28;20459;-58
2021/12/28 00:25:22;;;;;;;2.73;1.20;;;;;;;18.15;50.89;98771.22;5069721;28;20805;-58
2021/12/28 00:27:47;;;;;;;2.40;1.40;;;;;;;18.13;51.40;98767.16;5070290;28;20178;-58
2021/12/28 00:30:13;;;;;;;2.40;1.40;;;;;;;18.22;50.78;98767.53;5070263;28;20222;-57
2021/12/28 00:32:38;;;;;;;2.07;1.13;;;;;;;18.14;51.30;98766.75;5067616;28;20604;-58
2021/12/28 00:35:04;;;;;;;2.83;1.40;;;;;;;18.15;51.34;98756.94;5054534;28;20171;-57
2021/12/28 00:37:38;;;;;;;2.70;1.37;;;;;;;18.17;51.16;98751.63;5053648;28;20179;-58
2021/12/28 00:40:05;;;;;;;2.40;1.20;;;;;;;18.16;51.12;98752.84;5033083;28;20238;-57
2021/12/28 00:42:30;;;;;;;2.93;1.27;;;;;;;18.15;51.27;98754.09;5054435;28;20510;-57
2021/12/28 00:44:55;;;;;;;1.80;1.10;;;;;;;18.13;51.55;98753.69;5070993;28;20425;-57
2021/12/28 00:47:21;;;;;;;2.43;1.13;;;;;;;18.19;51.31;98763.47;5077861;28;20228;-58
2021/12/28 00:49:46;;;;;;;3.43;1.63;;;;;;;18.18;51.16;98755.31;5076117;28;20523;-57
2021/12/28 00:52:12;;;;;;;2.50;1.20;;;;;;;18.17;51.61;98756.53;5069558;28;20183;-57
2021/12/28 00:54:37;;;;;;;2.20;1.03;;;;;;;18.08;51.49;98744.75;5069463;28;20558;-58
2021/12/28 00:57:03;;;;;;;2.63;1.30;;;;;;;18.12;51.66;98734.91;5069383;28;20190;-58
2021/12/28 00:59:28;;;;;;;4.27;1.30;;;;;;;18.14;51.22;98729.63;5069675;28;20223;-58
2021/12/28 01:01:54;;;;;;;2.47;1.50;;;;;;;18.12;51.40;98725.56;5069811;28;20186;-57
2021/12/28 01:04:20;;;;;;;3.57;1.30;;;;;;;18.13;51.54;98716.56;5071276;28;20250;-58
2021/12/28 01:06:45;;;;;;;2.50;1.40;;;;;;;18.17;51.04;98720.19;5050083;28;20305;-58
2021/12/28 01:09:10;;;;;;;2.33;1.27;;;;;;;18.17;51.66;98714.50;5070667;28;20182;-58
2021/12/28 01:11:36;;;;;;;2.77;1.40;;;;;;;18.21;51.02;98712.44;5069686;28;20177;-57
2021/12/28 01:14:01;;;;;;;2.97;1.53;;;;;;;18.16;51.44;98712.88;5070654;28;20220;-57
2021/12/28 01:16:27;;;;;;;3.10;1.17;;;;;;;18.19;51.28;98703.47;5069653;28;20171;-57
2021/12/28 01:18:52;;;;;;;2.13;1.10;;;;;;;18.15;51.29;98702.69;5070743;28;20175;-57
2021/12/28 01:21:19;;;;;;;2.30;1.20;;;;;;;18.12;51.66;98689.22;5069439;28;20175;-58
2021/12/28 01:23:47;;;;;;;2.87;1.40;;;;;;;18.18;51.24;98699.00;5069641;28;20739;-58
2021/12/28 01:26:13;;;;;;;3.77;1.23;;;;;;;18.16;51.43;98697.78;5068576;28;20437;-57
2021/12/28 01:28:38;;;;;;;6.80;1.90;;;;;;;18.16;51.20;98690.03;5070005;28;20433;-57
2021/12/28 01:31:04;;;;;;;3.73;1.57;;;;;;;18.18;51.19;98692.47;5051420;28;20179;-58
2021/12/28 01:33:29;;;;;;;3.73;1.03;;;;;;;18.17;50.93;98685.13;5071008;28;20167;-57
2021/12/28 01:35:55;;;;;;;2.87;1.50;;;;;;;18.21;51.20;98686.72;5064528;28;20185;-57
2021/12/28 01:38:20;;;;;;;3.50;1.17;;;;;;;18.16;51.46;98684.31;5068218;28;20228;-57
2021/12/28 01:40:46;;;;;;;2.00;1.10;;;;;;;18.18;51.16;98675.31;5069647;28;20178;-58
2021/12/28 01:43:16;;;;;;;3.80;1.40;;;;;;;18.17;51.31;98677.34;5070191;28;20195;-58
2021/12/28 01:45:52;;;;;;;2.27;1.47;;;;;;;18.20;51.10;98675.72;5068232;28;20544;-58
2021/12/28 01:48:18;;;;;;;2.80;1.13;;;;;;;18.18;50.78;98679.00;5050104;28;20409;-58
2021/12/28 01:50:43;;;;;;;4.27;1.50;;;;;;;18.17;50.94;98662.28;5062829;28;20889;-58
2021/12/28 01:53:09;;;;;;;1.80;1.13;;;;;;;18.20;51.00;98667.13;5070571;28;20630;-57
2021/12/28 01:55:36;;;;;;;2.97;1.30;;;;;;;18.18;51.34;98663.91;5068859;28;20185;-58
2021/12/28 01:58:03;;;;;;;2.67;1.30;;;;;;;18.20;51.09;98662.25;5065879;28;20436;-57
2021/12/28 02:00:28;;;;;;;2.70;1.17;;;;;;;18.18;51.26;98663.91;5044174;28;20473;-58
2021/12/28 02:02:54;;;;;;;2.77;1.40;;;;;;;18.20;51.10;98656.53;5058459;28;20492;-57
2021/12/28 02:05:19;;;;;;;2.17;1.33;;;;;;;18.18;51.34;98661.88;5069088;28;20217;-58
2021/12/28 02:07:47;;;;;;;2.23;1.13;;;;;;;18.15;51.02;98645.56;5050864;28;20623;-57
2021/12/28 02:10:13;;;;;;;3.50;1.40;;;;;;;18.19;51.17;98646.34;5069846;28;20228;-57
2021/12/28 02:12:39;;;;;;;2.43;1.27;;;;;;;18.21;51.36;98645.94;5066347;28;20445;-57
2021/12/28 02:15:12;;;;;;;2.10;1.10;;;;;;;18.15;51.60;98639.84;5069808;28;20183;-58
2021/12/28 02:17:37;;;;;;;6.57;1.80;;;;;;;18.19;51.40;98637.78;5069030;28;20548;-57
2021/12/28 02:20:14;;;;;;;2.43;1.30;;;;;;;18.16;50.98;98630.03;5070484;28;20412;-57
2021/12/28 02:22:40;;;;;;;3.47;1.30;;;;;;;18.17;51.51;98620.22;5067879;28;20207;-57
2021/12/28 02:25:06;;;;;;;2.80;1.20;;;;;;;18.18;51.27;98623.91;5069791;28;20783;-56
2021/12/28 02:27:31;;;;;;;2.37;1.43;;;;;;;18.19;51.06;98614.09;5069138;28;20496;-57
2021/12/28 02:29:57;;;;;;;5.07;1.43;;;;;;;18.10;51.38;98611.72;5068455;28;20642;-57
2021/12/28 02:32:27;;;;;;;2.53;1.27;;;;;;;18.15;51.41;98613.31;5069579;28;20179;-57
2021/12/28 02:34:52;;;;;;;2.20;1.17;;;;;;;18.14;51.33;98612.53;5068833;28;20580;-57
2021/12/28 02:37:18;;;;;;;4.03;1.23;;;;;;;18.13;51.56;98610.91;5068678;28;20467;-57
2021/12/28 02:39:45;;;;;;;2.33;1.07;;;;;;;18.11;51.39;98618.25;5067533;28;20251;-57
2021/12/28 02:42:10;;;;;;;3.27;1.40;;;;;;;18.10;51.82;98600.31;5069271;28;20250;-57
2021/12/28 02:44:35;;;;;;;2.67;1.20;;;;;;;18.10;51.67;98597.44;5073466;28;20470;-57
2021/12/28 02:47:01;;;;;;;2.43;1.30;;;;;;;18.12;51.91;98589.25;5070093;28;20230;-57
2021/12/28 02:49:26;;;;;;;2.57;1.40;;;;;;;18.18;51.52;98583.94;5089229;28;20224;-57
2021/12/28 02:51:52;;;;;;;2.53;1.10;;;;;;;18.23;50.67;98572.06;5089161;28;20171;-57
2021/12/28 02:54:17;;;;;;;2.43;1.20;;;;;;;18.18;51.63;98567.63;5081250;28;20172;-58
2021/12/28 02:56:42;;;;;;;2.30;1.20;;;;;;;18.21;51.05;98561.03;5068595;28;20186;-58
2021/12/28 02:59:08;;;;;;;3.67;1.30;;;;;;;18.18;51.39;98561.91;5063375;28;20230;-58
2021/12/28 03:01:34;;;;;;;2.43;1.10;;;;;;;18.20;52.03;98570.03;5068632;28;20179;-57
2021/12/28 03:04:05;;;;;;;2.63;1.23;;;;;;;18.16;51.54;98558.63;5068659;28;20694;-58
2021/12/28 03:06:31;;;;;;;2.40;1.20;;;;;;;18.15;51.53;98557.03;5069410;28;20475;-58
2021/12/28 03:08:57;;;;;;;2.90;1.23;;;;;;;18.17;51.52;98553.75;5068222;28;20425;-58
2021/12/28 03:11:24;;;;;;;2.50;1.20;;;;;;;18.15;51.77;98545.59;5068205;28;20433;-58
2021/12/28 03:13:52;;;;;;;4.07;1.67;;;;;;;18.19;51.19;98546.38;5067905;28;20504;-57
2021/12/28 03:16:18;;;;;;;3.80;1.20;;;;;;;18.13;51.58;98539.50;5049900;28;20512;-57
2021/12/28 03:18:44;;;;;;;2.37;1.20;;;;;;;18.23;50.93;98535.75;5068131;28;20421;-57
2021/12/28 03:21:13;;;;;;;2.17;1.27;;;;;;;18.21;51.41;98538.19;5068745;28;20733;-57
2021/12/28 03:23:40;;;;;;;2.70;1.17;;;;;;;18.23;51.10;98535.75;5069433;28;20241;-57
2021/12/28 03:26:05;;;;;;;2.97;1.17;;;;;;;18.20;50.96;98536.56;5053535;28;20425;-58
2021/12/28 03:28:32;;;;;;;2.93;1.50;;;;;;;18.17;51.34;98525.97;5071881;28;20417;-57
2021/12/28 03:31:00;;;;;;;3.40;1.00;;;;;;;18.22;51.21;98528.38;5076431;28;20680;-57
2021/12/28 03:33:29;;;;;;;1.70;0.90;;;;;;;18.16;51.27;98524.38;5085274;28;20522;-57
2021/12/28 03:35:54;;;;;;;2.70;1.07;;;;;;;18.15;51.62;98519.91;5068597;28;20593;-58
2021/12/28 03:38:20;;;;;;;2.20;1.10;;;;;;;18.16;51.21;98517.88;5069860;28;20421;-58
2021/12/28 03:40:45;;;;;;;3.93;1.23;;;;;;;18.19;51.18;98514.97;5072438;28;20183;-57
2021/12/28 03:43:11;;;;;;;3.73;1.07;;;;;;;18.19;51.19;98511.28;5068987;28;20187;-57
2021/12/28 03:45:36;;;;;;;4.03;1.10;;;;;;;18.19;51.49;98508.44;5072599;28;20186;-57
2021/12/28 03:48:04;;;;;;;2.57;1.13;;;;;;;18.24;51.25;98497.38;5071556;28;20496;-57
2021/12/28 03:50:29;;;;;;;2.13;1.27;;;;;;;18.15;51.52;98499.06;5072185;28;20551;-57
2021/12/28 03:52:55;;;;;;;2.50;1.43;;;;;;;18.17;51.53;98490.91;5070862;28;20435;-58
2021/12/28 03:55:24;;;;;;;2.30;1.17;;;;;;;18.19;51.10;98469.28;5070112;28;20171;-57
2021/12/28 03:57:50;;;;;;;3.00;1.10;;;;;;;18.14;51.12;98475.44;5071631;28;20187;-57
2021/12/28 04:00:16;;;;;;;2.43;1.17;;;;;;;18.17;51.46;98476.63;5070621;28;20533;-57
2021/12/28 04:02:42;;;;;;;5.00;1.40;;;;;;;18.12;51.38;98469.31;5071092;28;20571;-58
2021/12/28 04:05:08;;;;;;;2.97;1.30;;;;;;;18.14;51.42;98461.16;5068442;28;20425;-57
2021/12/28 04:07:33;;;;;;;2.27;1.03;;;;;;;18.13;51.70;98455.88;5071232;28;20202;-57
2021/12/28 04:10:02;;;;;;;2.20;1.13;;;;;;;18.19;51.35;98457.03;5071682;28;20637;-58
2021/12/28 04:12:27;;;;;;;2.17;1.40;;;;;;;18.13;51.80;98450.97;5069980;28;20191;-57
2021/12/28 04:14:53;;;;;;;4.27;1.50;;;;;;;18.20;51.24;98450.06;5071096;28;20865;-58
2021/12/28 04:17:19;;;;;;;2.87;1.30;;;;;;;18.15;51.43;98448.50;5070151;28;20205;-57
2021/12/28 04:19:44;;;;;;;2.53;1.33;;;;;;;18.12;51.47;98443.63;5048898;28;20711;-58
2021/12/28 04:22:09;;;;;;;4.37;1.33;;;;;;;18.13;51.60;98450.97;5071463;28;20164;-57
2021/12/28 04:24:35;;;;;;;2.27;1.00;;;;;;;18.12;51.45;98440.75;5072190;28;20265;-57
2021/12/28 04:27:00;;;;;;;3.53;1.30;;;;;;;18.09;52.05;98444.47;5070163;28;20669;-57
2021/12/28 04:29:26;;;;;;;2.67;1.30;;;;;;;18.10;51.73;98436.72;5070610;28;20411;-57
2021/12/28 04:31:51;;;;;;;2.60;1.20;;;;;;;18.12;51.70;98443.63;5070652;28;20180;-58
2021/12/28 04:34:17;;;;;;;1.60;0.90;;;;;;;18.12;51.57;98428.53;5069060;28;20190;-58
2021/12/28 04:36:42;;;;;;;2.40;1.30;;;;;;;18.13;51.68;98430.16;5070350;28;20304;-57
2021/12/28 04:39:07;;;;;;;2.07;1.40;;;;;;;18.13;51.48;98433.84;5071278;28;20175;-57
2021/12/28 04:41:34;;;;;;;3.47;1.13;;;;;;;18.13;51.75;98436.69;5071190;28;20175;-58
2021/12/28 04:44:01;;;;;;;2.67;1.20;;;;;;;18.13;51.92;98433.03;5070851;28;20823;-57
2021/12/28 04:46:27;;;;;;;2.13;1.00;;;;;;;18.15;51.76;98424.81;5063757;28;20414;-57
2021/12/28 04:48:53;;;;;;;3.23;1.60;;;;;;;18.15;51.69;98419.13;5053332;28;20429;-57
2021/12/28 04:51:18;;;;;;;2.77;1.20;;;;;;;18.16;51.45;98418.69;5055611;28;20437;-57
2021/12/28 04:53:43;;;;;;;2.00;1.13;;;;;;;18.16;51.44;98415.84;5069909;28;20618;-58
2021/12/28 04:56:09;;;;;;;2.53;1.33;;;;;;;18.18;51.23;98415.44;5070277;28;20194;-58
2021/12/28 04:58:34;;;;;;;2.87;1.00;;;;;;;18.17;51.43;98405.25;5045463;28;20223;-57
2021/12/28 05:01:00;;;;;;;2.20;1.10;;;;;;;18.15;51.67;98404.84;5050725;28;20168;-57
2021/12/28 05:03:25;;;;;;;2.50;1.20;;;;;;;18.15;51.75;98399.94;5049473;28;20208;-57
2021/12/28 05:05:53;;;;;;;3.37;1.20;;;;;;;18.17;51.47;98400.31;5050575;28;20230;-58
2021/12/28 05:08:19;;;;;;;3.43;1.40;;;;;;;18.17;51.52;98410.94;5049384;28;20186;-58
2021/12/28 05:10:45;;;;;;;2.77;1.20;;;;;;;18.26;51.25;98402.69;5051431;28;20430;-57
2021/12/28 05:13:10;;;;;;;4.17;1.03;;;;;;;18.18;51.09;98398.28;5046890;28;20434;-57
2021/12/28 05:15:36;;;;;;;2.73;1.40;;;;;;;18.22;51.59;98396.22;5030607;28;20185;-57
2021/12/28 05:18:02;;;;;;;3.90;1.50;;;;;;;18.19;51.52;98392.16;5036120;28;20556;-58
2021/12/28 05:20:27;;;;;;;4.80;1.50;;;;;;;18.19;51.20;98392.16;5016994;28;20239;-57
2021/12/28 05:22:53;;;;;;;2.27;1.30;;;;;;;18.22;51.07;98385.56;5029067;28;20232;-58
2021/12/28 05:25:19;;;;;;;3.40;1.10;;;;;;;18.22;51.24;98388.44;5030426;28;20538;-58
2021/12/28 05:27:44;;;;;;;2.23;1.20;;;;;;;18.23;51.00;98384.38;5040910;28;20274;-58
2021/12/28 05:30:10;;;;;;;3.70;1.03;;;;;;;18.19;51.87;98382.75;5045188;28;20792;-58
2021/12/28 05:32:36;;;;;;;1.90;1.07;;;;;;;18.21;51.26;98378.25;5046313;28;20238;-58
2021/12/28 05:35:01;;;;;;;2.80;1.20;;;;;;;18.22;51.59;98391.28;5030455;28;20268;-58
2021/12/28 05:37:27;;;;;;;2.70;1.40;;;;;;;18.23;51.05;98392.94;5031456;28;20176;-58
2021/12/28 05:39:52;;;;;;;2.70;1.20;;;;;;;18.21;51.43;98388.88;5042165;28;20199;-58
2021/12/28 05:42:18;;;;;;;4.47;1.47;;;;;;;18.26;51.27;98394.91;5048325;28;20190;-57
2021/12/28 05:44:43;;;;;;;2.57;1.17;;;;;;;18.30;50.82;98384.28;5048913;28;20633;-58
2021/12/28 05:47:09;;;;;;;3.30;1.10;;;;;;;18.26;51.31;98386.34;5049616;28;20635;-58
2021/12/28 05:49:34;;;;;;;3.77;1.17;;;;;;;18.21;51.02;98386.81;5049883;28;20184;-58
2021/12/28 05:52:00;;;;;;;2.50;1.30;;;;;;;18.25;51.33;98384.72;5043230;28;20214;-58
2021/12/28 05:54:25;;;;;;;2.43;1.20;;;;;;;18.21;51.63;98389.69;5049590;28;20164;-58
2021/12/28 05:56:50;;;;;;;8.03;1.40;;;;;;;18.24;50.93;98383.13;5040608;28;20179;-58
2021/12/28 05:59:16;;;;;;;2.37;1.10;;;;;;;18.20;51.29;98390.09;5046907;28;20223;-58
2021/12/28 06:01:44;;;;;;;3.23;1.30;;;;;;;18.23;51.41;98387.22;5068004;28;20183;-58
2021/12/28 06:04:11;;;;;;;4.47;1.07;;;;;;;18.21;51.96;98386.81;5068638;28;20195;-58
2021/12/28 06:06:36;;;;;;;3.07;1.20;;;;;;;18.22;50.93;98401.91;5068141;28;20457;-58
2021/12/28 06:09:04;;;;;;;2.17;1.10;;;;;;;18.21;51.54;98406.03;5068615;28;20441;-58
2021/12/28 06:11:29;;;;;;;2.53;1.10;;;;;;;18.17;51.47;98406.03;5068690;28;20183;-58
2021/12/28 06:13:55;;;;;;;2.93;1.00;;;;;;;18.20;51.64;98404.38;5064651;28;20492;-58
2021/12/28 06:16:20;;;;;;;2.83;1.00;;;;;;;18.20;51.81;98404.38;5070901;28;20208;-58
2021/12/28 06:18:46;;;;;;;5.17;1.67;;;;;;;18.19;51.24;98402.75;5066857;28;20256;-57
2021/12/28 06:21:11;;;;;;;4.53;1.10;;;;;;;18.16;51.72;98401.56;5069186;28;20266;-57
2021/12/28 06:23:37;;;;;;;3.93;1.33;;;;;;;18.19;51.79;98402.75;5068991;28;20221;-58
2021/12/28 06:26:02;;;;;;;2.70;1.40;;;;;;;18.19;51.41;98406.44;5069969;28;20515;-58
2021/12/28 06:28:28;;;;;;;2.50;1.00;;;;;;;18.17;51.27;98400.31;5068225;28;20183;-58
2021/12/28 06:30:53;;;;;;;2.60;1.10;;;;;;;18.18;51.10;98401.97;5068338;28;20183;-57
2021/12/28 06:33:22;;;;;;;2.20;1.00;;;;;;;18.21;52.11;98403.94;5067145;28;20167;-58
2021/12/28 06:35:49;;;;;;;4.23;1.43;;;;;;;18.20;51.23;98402.34;5066073;28;20620;-58
2021/12/28 06:38:16;;;;;;;4.33;1.73;;;;;;;18.21;51.23;98398.25;5068057;28;20997;-58
2021/12/28 06:40:41;;;;;;;4.03;1.30;;;;;;;18.23;51.02;98403.53;5068498;28;20452;-58
2021/12/28 06:43:08;;;;;;;3.93;1.20;;;;;;;18.25;51.04;98406.75;5069591;28;20453;-57
2021/12/28 06:45:33;;;;;;;2.20;1.00;;;;;;;18.23;51.14;98404.34;5070985;28;20217;-58
2021/12/28 06:47:59;;;;;;;2.50;1.10;;;;;;;18.20;51.27;98401.50;5088951;28;20429;-57
2021/12/28 06:50:24;;;;;;;4.00;1.70;;;;;;;18.20;51.60;98408.06;5050500;28;20176;-57
2021/12/28 06:52:50;;;;;;;1.93;0.83;;;;;;;18.20;51.32;98393.78;5088594;28;20205;-58
2021/12/28 06:55:15;;;;;;;2.07;1.23;;;;;;;18.22;51.34;98397.00;5078717;28;20312;-58
2021/12/28 06:57:41;;;;;;;2.10;1.20;;;;;;;18.25;51.07;98407.59;5068069;28;20269;-58
2021/12/28 07:00:09;;;;;;;3.37;1.30;;;;;;;18.21;51.48;98394.59;5052723;28;20227;-58
2021/12/28 07:02:34;;;;;;;3.10;1.33;;;;;;;18.22;52.11;98397.00;5073106;28;20236;-58
2021/12/28 07:05:00;;;;;;;3.00;1.00;;;;;;;18.26;51.19;98394.91;5069638;28;20781;-58
2021/12/28 07:07:25;;;;;;;6.23;1.30;;;;;;;18.25;51.06;98387.59;5071650;28;20268;-57
2021/12/28 07:09:50;;;;;;;2.47;1.23;;;;;;;18.26;51.06;98396.97;5073101;28;20647;-57
2021/12/28 07:12:16;;;;;;;2.87;1.13;;;;;;;18.26;51.36;98399.84;5072113;28;20171;-57
2021/12/28 07:14:41;;;;;;;3.43;1.07;;;;;;;18.26;51.01;98403.50;5073210;28;20163;-58
2021/12/28 07:17:07;;;;;;;2.20;1.30;;;;;;;18.23;51.40;98403.53;5070865;28;20189;-58
2021/12/28 07:19:32;;;;;;;2.90;1.17;;;;;;;18.34;50.68;98405.06;5073180;28;20179;-58
2021/12/28 07:21:57;;;;;;;2.50;1.23;;;;;;;18.29;51.05;98396.94;5071145;28;20557;-58
2021/12/28 07:24:23;;;;;;;4.07;1.30;;;;;;;18.24;51.63;98408.81;5072582;28;20214;-57
2021/12/28 07:26:49;;;;;;;2.20;0.90;;;;;;;18.27;51.41;98407.16;5070954;28;20252;-58
2021/12/28 07:29:14;;;;;;;2.13;0.77;;;;;;;18.27;51.23;98412.88;5071948;28;20578;-58
2021/12/28 07:31:40;;;;;;;3.47;1.10;;;;;;;18.28;50.90;98412.47;5065326;28;20642;-58
2021/12/28 07:34:05;;;;;;;2.30;1.20;;;;;;;18.27;51.51;98410.03;5072380;28;20258;-58
2021/12/28 07:36:31;;;;;;;1.73;0.80;;;;;;;18.26;50.93;98414.13;5072374;28;20195;-58
2021/12/28 07:38:56;;;;;;;2.53;1.03;;;;;;;18.26;51.47;98417.78;5072200;28;20798;-58
2021/12/28 07:41:22;;;;;;;2.40;1.07;;;;;;;18.25;51.25;98426.75;5044303;28;20179;-58
2021/12/28 07:43:47;;;;;;;3.57;1.30;;;;;;;18.27;51.22;98427.94;5072682;28;20224;-58
2021/12/28 07:46:13;;;;;;;3.67;1.40;;;;;;;18.29;51.13;98434.06;5071674;28;20237;-58
2021/12/28 07:48:38;;;;;;;2.50;1.33;;;;;;;18.24;51.49;98448.00;5071896;28;20402;-58
2021/12/28 07:51:04;;;;;;;2.70;1.27;;;;;;;18.26;51.44;98448.41;5071139;28;20547;-58
2021/12/28 07:53:29;;;;;;;2.20;1.20;;;;;;;18.28;51.78;98446.75;5072226;28;20289;-60
2021/12/28 07:55:57;;;;;;;2.20;1.00;;;;;;;18.30;51.16;98437.72;5072499;28;20175;-58
2021/12/28 07:58:23;;;;;;;1.70;0.93;;;;;;;18.28;51.19;98445.91;5070371;28;20371;-58
2021/12/28 08:00:48;;;;;;;2.07;1.00;;;;;;;18.31;51.24;98448.72;5070113;28;20437;-58
2021/12/28 08:03:14;;;;;;;2.17;0.90;;;;;;;18.33;51.74;98451.19;5070439;28;20727;-58
2021/12/28 08:05:39;;;;;;;3.43;1.07;;;;;;;18.30;51.18;98464.25;5072289;28;20171;-58
2021/12/28 08:08:05;;;;;;;4.53;1.37;;;;;;;18.30;51.27;98467.13;5070222;28;20171;-58
2021/12/28 08:10:30;;;;;;;3.37;1.40;;;;;;;18.31;51.58;98471.59;5071827;28;20296;-58
2021/12/28 08:12:56;;;;;;;4.43;1.17;;;;;;;18.33;51.34;98477.75;5071317;28;20569;-57
2021/12/28 08:15:23;;;;;;;3.10;1.07;;;;;;;18.38;51.10;98482.16;5071363;28;20217;-58
2021/12/28 08:17:48;;;;;;;2.93;1.13;;;;;;;18.36;51.33;98478.94;5070855;28;20448;-58
2021/12/28 08:20:15;;;;;;;2.70;0.90;;;;;;;18.36;51.41;98484.66;5070785;28;20425;-57
2021/12/28 08:22:41;;;;;;;2.60;1.17;;;;;;;18.37;51.23;98489.91;5066286;28;20607;-58
2021/12/28 08:25:07;;;;;;;2.40;1.00;;;;;;;18.31;51.16;98491.59;5062635;28;20437;-58
2021/12/28 08:27:32;;;;;;;2.50;1.00;;;;;;;18.34;51.43;98489.94;5069083;28;20626;-58
2021/12/28 08:29:58;;;;;;;2.50;0.90;;;;;;;18.38;51.02;98496.44;5070086;28;20471;-58
2021/12/28 08:32:23;;;;;;;2.37;1.03;;;;;;;18.30;51.10;98500.56;5070041;28;20186;-58
2021/12/28 08:34:49;;;;;;;1.70;0.77;;;;;;;18.26;51.61;98499.81;5057546;28;20175;-58
2021/12/28 08:37:14;;;;;;;2.60;1.00;;;;;;;18.27;51.53;98499.38;5059592;28;20171;-58
2021/12/28 08:39:40;;;;;;;2.47;1.10;;;;;;;18.26;51.63;98494.09;5071140;28;20202;-58
2021/12/28 08:42:05;;;;;;;2.07;0.63;;;;;;;18.24;51.50;98497.38;5070742;28;20241;-58
2021/12/28 08:44:31;;;;;;;4.43;1.23;;;;;;;18.24;51.77;98505.94;5070661;28;20205;-58
2021/12/28 08:46:56;;;;;;;2.70;1.23;;;;;;;18.28;51.14;98506.72;5069431;28;20183;-58
2021/12/28 08:49:22;;;;;;;2.10;1.10;;;;;;;18.27;51.43;98513.66;5070239;28;20660;-58
2021/12/28 08:51:48;;;;;;;4.83;1.23;;;;;;;18.29;51.32;98528.34;5062403;28;20591;-58
2021/12/28 08:54:13;;;;;;;2.10;0.97;;;;;;;18.24;51.35;98527.97;5071816;28;20436;-58
2021/12/28 08:56:39;;;;;;;2.90;1.33;;;;;;;18.26;51.59;98540.59;5070091;28;20167;-58
2021/12/28 08:59:04;;;;;;;2.10;0.90;;;;;;;18.26;51.78;98539.81;5067727;28;20269;-57
2021/12/28 09:01:30;;;;;;;2.43;1.00;;;;;;;18.23;52.06;98549.19;5069790;28;20183;-57
2021/12/28 09:03:55;;;;;;;3.27;1.03;;;;;;;18.23;51.67;98550.03;5068333;28;20230;-58
2021/12/28 09:06:24;;;;;;;2.10;1.00;;;;;;;18.23;51.26;98550.03;5068487;28;20191;-57
2021/12/28 09:08:49;;;;;;;2.20;1.10;;;;;;;18.27;51.52;98556.50;5068131;28;20189;-58
2021/12/28 09:11:14;;;;;;;5.30;1.33;;;;;;;18.29;51.37;98558.94;5069636;28;20488;-57
2021/12/28 09:13:40;;;;;;;2.03;1.00;;;;;;;18.24;51.45;98560.22;5069164;28;20183;-58
2021/12/28 09:16:05;;;;;;;3.03;1.27;;;;;;;18.21;51.72;98565.97;5069646;28;20171;-58
2021/12/28 09:18:31;;;;;;;2.83;1.00;;;;;;;18.24;51.60;98571.63;5068308;28;20233;-58
2021/12/28 09:20:57;;;;;;;2.03;1.20;;;;;;;18.23;51.66;98569.19;5069640;28;20622;-58
2021/12/28 09:23:23;;;;;;;2.80;0.93;;;;;;;18.23;51.61;98577.78;5069645;28;20658;-58
2021/12/28 09:25:48;;;;;;;4.70;1.00;;;;;;;18.25;51.47;98583.84;5069774;28;20445;-58
2021/12/28 09:28:14;;;;;;;2.17;0.90;;;;;;;18.28;51.68;98588.75;5068165;28;20167;-58
2021/12/28 09:30:40;;;;;;;3.90;1.10;;;;;;;18.25;51.88;98586.72;5068150;28;20223;-58
2021/12/28 09:33:05;;;;;;;3.33;1.00;;;;;;;18.28;51.70;98581.00;5052197;28;20524;-58
2021/12/28 09:35:31;;;;;;;3.93;1.10;;;;;;;18.29;51.41;98587.50;5069903;28;20405;-58
2021/12/28 09:37:56;;;;;;;3.63;1.10;;;;;;;18.30;51.82;98592.81;5070059;28;20922;-57
2021/12/28 09:40:22;;;;;;;2.43;1.10;;;;;;;18.28;51.51;98588.75;5063099;28;20545;-57
2021/12/28 09:42:47;;;;;;;1.63;0.70;;;;;;;18.33;51.54;98589.16;5065522;28;20179;-58
2021/12/28 09:45:13;;;;;;;3.93;0.97;;;;;;;18.30;51.60;98586.25;5069569;28;20179;-58
2021/12/28 09:47:41;;;;;;;3.27;1.00;;;;;;;18.26;51.82;98589.16;5069834;28;20592;-58
2021/12/28 09:50:07;;;;;;;1.90;0.93;;;;;;;18.30;51.51;98597.69;5069041;28;20258;-57
2021/12/28 09:52:32;;;;;;;1.80;0.90;;;;;;;18.27;52.23;98602.19;5070368;28;20425;-58
2021/12/28 09:54:58;;;;;;;3.03;1.10;;;;;;;18.33;51.24;98597.72;5062816;28;20167;-58
2021/12/28 09:57:23;;;;;;;2.13;0.70;;;;;;;18.12;52.58;98588.47;5048140;28;20274;-58
2021/12/28 09:59:49;;;;;;;5.07;1.10;;;;;;;18.03;53.25;98594.66;5058405;28;20235;-59
2021/12/28 10:02:15;;;;;;;3.47;1.10;;;;;;;18.06;52.93;98595.88;5066120;28;20187;-58
2021/12/28 10:04:58;;;;;;;9.83;1.53;;;;;;;18.13;52.95;98599.47;5065862;28;20636;-59
2021/12/28 10:07:28;;;;;;;10.03;2.23;;;;;;;18.21;52.67;98583.91;5065166;28;20272;-59
2021/12/28 10:09:54;;;;;;;15.97;2.60;;;;;;;18.35;53.16;98586.66;5066067;28;20497;-59
2021/12/28 10:12:51;;;;;;;13.13;2.20;;;;;;;18.42;53.14;98594.38;5064335;28;20437;-59
2021/12/28 10:15:18;;;;;;;14.73;2.73;;;;;;;18.51;52.87;98598.34;5034392;28;20219;-58
2021/12/28 10:17:46;;;;;;;10.20;2.13;;;;;;;18.50;54.16;98591.03;5047110;28;20426;-58
2021/12/28 10:20:19;;;;;;;12.73;2.77;;;;;;;18.59;55.86;98577.06;5047704;28;20429;-59
2021/12/28 10:22:52;;;;;;;18.13;3.57;;;;;;;18.75;55.91;98580.16;5058102;28;21018;-58
2021/12/28 10:25:21;;;;;;;15.80;2.87;;;;;;;18.81;56.40;98584.19;5068361;28;20509;-59
2021/12/28 10:27:47;;;;;;;18.10;3.27;;;;;;;18.80;57.34;98587.47;5063014;28;20441;-59
2021/12/28 10:30:21;;;;;;;16.13;3.17;;;;;;;18.77;56.60;98583.41;5046739;28;20419;-59
2021/12/28 10:32:47;;;;;;;16.93;3.13;;;;;;;18.84;56.64;98591.91;5046436;28;20833;-59
2021/12/28 10:35:33;;;;;;;19.67;2.70;;;;;;;18.91;56.71;98585.31;5054936;28;20524;-59
2021/12/28 10:38:07;;;;;;;16.73;3.30;;;;;;;18.98;56.39;98577.47;5061202;28;20474;-59
2021/12/28 10:40:35;;;;;;;16.40;3.87;;;;;;;18.85;56.70;98579.25;5065846;28;20413;-58
2021/12/28 10:43:10;;;;;;;14.97;2.90;;;;;;;18.85;56.48;98582.09;5062632;28;20465;-58
2021/12/28 10:45:49;;;;;;;13.23;3.33;;;;;;;18.89;56.47;98576.34;5046801;28;20429;-58
2021/12/28 10:48:17;;;;;;;14.23;2.23;;;;;;;18.84;56.47;98580.47;5064216;28;20436;-58
2021/12/28 10:51:00;;;;;;;13.10;2.27;;;;;;;18.84;56.02;98582.53;5067268;28;20784;-59
2021/12/28 10:53:33;;;;;;;10.43;2.40;;;;;;;18.82;56.05;98585.00;5051830;28;20445;-58
2021/12/28 10:55:59;;;;;;;12.20;2.30;;;;;;;18.82;55.93;98588.66;5062247;28;20426;-59
2021/12/28 10:58:44;;;;;;;7.87;2.90;;;;;;;18.78;56.06;98589.94;5065400;28;20484;-59
2021/12/28 11:01:11;;;;;;;18.63;2.53;;;;;;;18.77;55.50;98582.59;5058132;28;20425;-59
2021/12/28 11:03:38;;;;;;;23.97;3.33;;;;;;;18.80;54.62;98594.00;5066585;28;20932;-58
2021/12/28 11:06:09;;;;;;;9.43;2.40;;;;;;;18.68;54.44;98597.41;5066092;28;20499;-58
2021/12/28 11:08:35;;;;;;;13.67;3.13;;;;;;;18.60;53.48;98589.28;5066640;28;20949;-58
2021/12/28 11:11:06;;;;;;;20.23;3.50;;;;;;;18.53;53.35;98593.06;5059133;28;20434;-58
2021/12/28 11:13:32;;;;;;;8.37;2.60;;;;;;;18.53;53.68;98600.81;5049183;28;20625;-59
2021/12/28 11:15:58;;;;;;;11.97;3.10;;;;;;;18.59;54.26;98588.50;5067388;28;20491;-58
2021/12/28 11:18:34;;;;;;;13.83;2.50;;;;;;;18.93;53.69;98597.97;5046571;28;20648;-58
2021/12/28 11:21:15;;;;;;;15.97;2.70;;;;;;;18.97;53.90;98595.06;5055182;28;20797;-59
2021/12/28 11:23:41;;;;;;;10.30;2.47;;;;;;;19.10;54.09;98596.94;5065940;28;20445;-59
2021/12/28 11:26:26;;;;;;;10.20;2.70;;;;;;;19.12;54.48;98590.78;5066317;28;20468;-58
2021/12/28 11:29:04;;;;;;;20.77;3.40;;;;;;;19.04;55.33;98587.22;5050256;28;20183;-59